Погода Итапуина 2 недели

Сан-Паулу, Бразилия

21 июля-03 августа
  • 21июля
    Сегодня
    +15°
    +30°
    Ясно и безоблачно
    ВремяПогодаТемператураВлажностьДавлениеВетер, м/сВероятность осадков
    00:00Ясно и безоблачно+17°C71 %727 мм4.2 м/с5 %
    03:00Ясно и безоблачно+15°C89 %726 мм3.3 м/с5 %
    06:00Ясно и безоблачно+14°C92 %726 мм2.5 м/с5 %
    09:00Ясно и безоблачно+17°C72 %728 мм1.8 м/с5 %
    12:00Ясно и безоблачно+26°C44 %728 мм0.9 м/с5 %
    15:00Ясно и безоблачно+29°C33 %726 мм0.7 м/с5 %
    18:00Ясно и безоблачно+25°C50 %725 мм2.3 м/с5 %
    21:00Ясно и безоблачно+23°C66 %726 мм2.6 м/с5 %
  • 22июля
    Понедельник
    +15°
    +30°
    Ясно и безоблачно
    ВремяПогодаТемператураВлажностьДавлениеВетер, м/сВероятность осадков
    00:00Ясно и безоблачно+18°C76 %726 мм2.3 м/с5 %
    03:00Ясно и безоблачно+17°C84 %726 мм1.3 м/с5 %
    06:00Ясно и безоблачно+16°C89 %726 мм2.0 м/с5 %
    09:00Ясно и безоблачно+19°C70 %728 мм1.8 м/с5 %
    12:00Ясно и безоблачно+27°C39 %728 мм0.1 м/с5 %
    15:00Ясно и безоблачно+30°C30 %726 мм1.3 м/с5 %
    18:00Ясно и безоблачно+25°C47 %726 мм2.4 м/с5 %
    21:00Ясно и безоблачно+22°C60 %727 мм2.3 м/с5 %
  • 23июля
    Вторник
    +15°
    +30°
    Ясно и безоблачно
    ВремяПогодаТемператураВлажностьДавлениеВетер, м/сВероятность осадков
    00:00Ясно и безоблачно+19°C63 %727 мм3.6 м/с5 %
    03:00Ясно и безоблачно+17°C67 %726 мм3.5 м/с5 %
    06:00Ясно и безоблачно+16°C80 %727 мм3.0 м/с5 %
    09:00Ясно и безоблачно+19°C64 %729 мм2.3 м/с5 %
    12:00Ясно и безоблачно+26°C40 %729 мм2.4 м/с5 %
    15:00Ясно и безоблачно+29°C36 %727 мм2.7 м/с5 %
    18:00Практически безоблачно+26°C47 %727 мм2.8 м/с5 %
    21:00Ясно и безоблачно+22°C55 %727 мм2.6 м/с5 %
  • 24июля
    Среда
    +15°
    +31°
    Облачно с прояснениями
    ВремяПогодаТемператураВлажностьДавлениеВетер, м/сВероятность осадков
    00:00Небольшая облачность+19°C63 %727 мм3.3 м/с5 %
    03:00Небольшая облачность+16°C76 %726 мм2.8 м/с5 %
    06:00Практически безоблачно+16°C82 %726 мм2.3 м/с5 %
    09:00Небольшая облачность+19°C62 %728 мм1.6 м/с5 %
    12:00Облачно с прояснениями+28°C39 %728 мм1.3 м/с5 %
    15:00Облачно с прояснениями+31°C28 %726 мм0.7 м/с5 %
    18:00Практически безоблачно+26°C48 %726 мм1.9 м/с5 %
    21:00Практически безоблачно+23°C68 %726 мм2.6 м/с5 %
  • 25июля
    Четверг
    +16°
    +32°
    Ясно и безоблачно
    ВремяПогодаТемператураВлажностьДавлениеВетер, м/сВероятность осадков
    00:00Ясно и безоблачно+20°C62 %726 мм1.9 м/с5 %
    03:00Ясно и безоблачно+16°C78 %725 мм2.0 м/с5 %
    06:00Ясно и безоблачно+16°C80 %726 мм2.0 м/с5 %
    09:00Ясно и безоблачно+20°C63 %727 мм0.3 м/с5 %
    12:00Ясно и безоблачно+29°C35 %727 мм2.2 м/с5 %
    15:00Ясно и безоблачно+31°C28 %725 мм2.1 м/с5 %
    18:00Ясно и безоблачно+30°C35 %725 мм0.4 м/с5 %
    21:00Ясно и безоблачно+26°C45 %725 мм1.0 м/с5 %
Мы используем cookies
Соглашаюсь